KUIL/UIL METAR and TAF weather

Enter ICAO airport designator
Station Type Date Time Source
KUIL METAR 2021/07/27 21:53 UTC NOAA

KUIL 272153Z AUTO 30008KT 10SM CLR 22/13 A3010 RMK AO2 SLP191 T02170133 $


Station Type Date Time Source
KUIL Decoded METAR 2021/07/27 21:53 UTC NOAA

QUILLAYUTE STATE AIRPORT, WA, United States (KUIL) 47-56N 124-34W 54M
Jul 27, 2021 - 05:53 PM EDT / 2021.07.27 2153 UTC
Wind: from the WNW (300 degrees) at 9 MPH (8 KT):0
Visibility: 10 mile(s):0
Sky conditions: clear
Temperature: 71.1 F (21.7 C)
Dew Point: 55.9 F (13.3 C)
Relative Humidity: 58%
Pressure (altimeter): 30.1 in. Hg (1019 hPa)
ob: KUIL 272153Z AUTO 30008KT 10SM CLR 22/13 A3010 RMK AO2 SLP191 T02170133
cycle: 22

Station Type Date Time Source
KUIL TAF UTC NOAA

Error!

Example: see airport list